Time;durP1;ratioP1;P1;durP2;ratioP2;P2;SDS_P1;SDS_P2;PMS_P1;PMS_P2;Temp;Humidity;BMP_temperature;BMP_pressure;BME280_temperature;BME280_humidity;BME280_pressure;Samples;Min_cycle;Max_cycle;Signal;HPM_P1;HPM_P2
2021/01/13 00:01:29;;;;;;;16.97;4.50;;;;;;;1.80;100.00;100141.38;5139583;27;20282;-39
2021/01/13 00:04:16;;;;;;;17.67;4.67;;;;;;;1.68;100.00;100138.53;5139981;27;20201;-37
2021/01/13 00:07:03;;;;;;;20.13;4.03;;;;;;;1.75;100.00;100134.47;5139952;27;20201;-40
2021/01/13 00:09:49;;;;;;;16.73;4.63;;;;;;;1.70;100.00;100131.78;5139581;27;20193;-39
2021/01/13 00:12:37;;;;;;;12.10;4.37;;;;;;;1.84;100.00;100129.56;5139548;27;20201;-37
2021/01/13 00:15:25;;;;;;;11.00;3.80;;;;;;;1.87;100.00;100127.97;5139871;27;20335;-38
2021/01/13 00:18:12;;;;;;;11.10;4.10;;;;;;;1.59;100.00;100125.59;5139328;27;20197;-39
2021/01/13 00:20:59;;;;;;;12.23;4.27;;;;;;;1.80;100.00;100122.69;5139370;27;20639;-37
2021/01/13 00:23:45;;;;;;;17.37;4.20;;;;;;;1.87;100.00;100122.84;5139353;27;20197;-34
2021/01/13 00:26:31;;;;;;;15.60;3.77;;;;;;;1.68;100.00;100120.69;5138984;27;20259;-40
2021/01/13 00:29:20;;;;;;;16.13;4.13;;;;;;;1.81;100.00;100125.25;5139158;27;20202;-36
2021/01/13 00:32:06;;;;;;;18.87;5.03;;;;;;;1.62;100.00;100134.13;5139434;27;20212;-33
2021/01/13 00:34:52;;;;;;;12.13;4.00;;;;;;;1.75;100.00;100125.13;5139362;27;20198;-36
2021/01/13 00:37:40;;;;;;;15.13;4.03;;;;;;;1.78;100.00;100129.44;5139307;27;20590;-37
2021/01/13 00:40:26;;;;;;;14.30;3.93;;;;;;;1.80;100.00;100122.69;5139048;27;20197;-38
2021/01/13 00:43:13;;;;;;;16.87;4.50;;;;;;;1.64;100.00;100122.28;5139043;27;20202;-35
2021/01/13 00:45:59;;;;;;;12.17;4.47;;;;;;;1.68;100.00;100123.25;5138861;27;20197;-34
2021/01/13 00:48:48;;;;;;;17.93;4.93;;;;;;;1.64;100.00;100127.41;5138637;27;20287;-36
2021/01/13 00:51:38;;;;;;;12.53;4.37;;;;;;;1.80;100.00;100128.63;5138459;27;20217;-37
2021/01/13 00:54:24;;;;;;;14.93;4.87;;;;;;;1.75;100.00;100127.69;5138404;27;20293;-38
2021/01/13 00:57:10;;;;;;;16.33;5.37;;;;;;;1.81;100.00;100121.84;5138965;27;20209;-35
2021/01/13 00:59:58;;;;;;;25.90;5.30;;;;;;;1.68;100.00;100123.25;5097852;28;20195;-35
2021/01/13 01:02:44;;;;;;;17.93;5.17;;;;;;;1.75;100.00;100124.25;5097550;28;20588;-34
2021/01/13 01:05:30;;;;;;;8.43;4.63;;;;;;;1.69;100.00;100130.06;5097997;28;20199;-33
2021/01/13 01:08:19;;;;;;;17.30;5.23;;;;;;;1.93;100.00;100122.16;5097993;28;20218;-38
2021/01/13 01:11:07;;;;;;;16.53;5.97;;;;;;;1.68;100.00;100121.56;5097678;28;20344;-35
2021/01/13 01:13:54;;;;;;;18.23;5.63;;;;;;;1.59;100.00;100134.09;5097634;28;20190;-35
2021/01/13 01:16:43;;;;;;;17.33;5.93;;;;;;;1.67;100.00;100137.66;5097459;28;20203;-35
2021/01/13 01:19:30;;;;;;;12.63;5.63;;;;;;;1.84;100.00;100142.31;5097197;28;20196;-33
2021/01/13 01:22:19;;;;;;;13.37;5.87;;;;;;;1.63;100.00;100135.88;5097336;28;20231;-34
2021/01/13 01:25:06;;;;;;;18.50;5.60;;;;;;;1.80;100.00;100138.81;5097535;28;20199;-35
2021/01/13 01:27:55;;;;;;;14.20;5.63;;;;;;;1.69;100.00;100130.94;5097429;28;20341;-35
2021/01/13 01:30:41;;;;;;;12.27;5.40;;;;;;;1.77;100.00;100135.38;5097509;28;21267;-32
2021/01/13 01:33:28;;;;;;;12.07;5.97;;;;;;;1.83;100.00;100138.03;5097381;28;20202;-39
2021/01/13 01:36:15;;;;;;;12.70;5.20;;;;;;;1.78;100.00;100134.53;5097393;28;20202;-35
2021/01/13 01:39:01;;;;;;;15.27;5.97;;;;;;;1.81;100.00;100144.78;5097235;28;20283;-35
2021/01/13 01:41:48;;;;;;;13.67;5.13;;;;;;;1.72;100.00;100135.25;5097273;28;20633;-34
2021/01/13 01:44:35;;;;;;;15.37;5.43;;;;;;;1.87;100.00;100139.84;5096921;28;20231;-33
2021/01/13 01:47:44;;;;;;;20.17;5.20;;;;;;;1.82;100.00;100146.50;5097285;28;20207;-32
2021/01/13 01:50:32;;;;;;;14.13;4.97;;;;;;;1.73;100.00;100137.84;5097507;28;20284;-36
2021/01/13 01:53:23;;;;;;;18.37;6.20;;;;;;;1.73;100.00;100134.41;5096968;28;20608;-33
2021/01/13 01:56:17;;;;;;;12.57;4.83;;;;;;;1.71;100.00;100134.38;5096861;28;20617;-37
2021/01/13 01:59:06;;;;;;;12.53;4.80;;;;;;;1.86;100.00;100140.66;5127292;28;20379;-35
2021/01/13 02:01:58;;;;;;;15.80;5.30;;;;;;;1.90;100.00;100135.69;5138328;28;20233;-34
2021/01/13 02:04:45;;;;;;;18.47;5.50;;;;;;;1.80;100.00;100136.28;5137686;28;20213;-36
2021/01/13 02:07:33;;;;;;;13.37;4.93;;;;;;;1.80;100.00;100141.38;5137166;28;20363;-32
2021/01/13 02:10:19;;;;;;;15.97;5.63;;;;;;;1.93;100.00;100133.22;5141497;27;20275;-34
2021/01/13 02:13:08;;;;;;;23.50;5.83;;;;;;;1.86;100.00;100144.09;5142489;27;20197;-32
2021/01/13 02:15:55;;;;;;;12.03;5.57;;;;;;;1.86;100.00;100143.22;5142338;27;20338;-36
2021/01/13 02:18:44;;;;;;;15.13;6.07;;;;;;;1.97;100.00;100145.22;5141518;27;20197;-35
2021/01/13 02:21:31;;;;;;;14.03;6.87;;;;;;;1.83;100.00;100138.03;5141667;27;20243;-34
2021/01/13 02:25:07;;;;;;;19.40;7.20;;;;;;;2.05;100.00;100147.94;5141643;27;20194;-34
2021/01/13 02:28:00;;;;;;;18.03;7.57;;;;;;;1.92;100.00;100145.94;5141157;27;20197;-34
2021/01/13 02:31:06;;;;;;;18.40;8.60;;;;;;;2.06;100.00;100142.00;5141162;27;20201;-34
2021/01/13 02:33:56;;;;;;;18.80;8.33;;;;;;;1.94;100.00;100151.94;5142010;27;20382;-33
2021/01/13 02:37:21;;;;;;;18.37;9.27;;;;;;;2.15;100.00;100156.66;5141061;27;20208;-33
2021/01/13 02:40:15;;;;;;;20.03;8.83;;;;;;;1.95;100.00;100154.50;5118383;27;20743;-35
2021/01/13 02:43:08;;;;;;;21.80;9.17;;;;;;;1.87;100.00;100150.03;5141440;27;20206;-32
2021/01/13 02:45:59;;;;;;;19.50;8.93;;;;;;;1.89;100.00;100156.91;5141296;27;20263;-35
2021/01/13 02:48:57;;;;;;;17.67;9.67;;;;;;;1.89;100.00;100156.03;5141159;27;20295;-33
2021/01/13 02:51:48;;;;;;;17.93;8.83;;;;;;;2.00;100.00;100165.66;5141267;27;20198;-34
2021/01/13 02:54:43;;;;;;;17.83;8.93;;;;;;;2.04;100.00;100158.97;5141363;27;20193;-33
2021/01/13 02:57:29;;;;;;;21.53;10.23;;;;;;;1.85;100.00;100157.66;5140495;27;20193;-31
2021/01/13 03:00:18;;;;;;;17.20;8.60;;;;;;;1.81;100.00;100170.28;5141168;27;20447;-31
2021/01/13 03:03:10;;;;;;;15.30;8.70;;;;;;;1.89;100.00;100167.09;5141384;27;20209;-33
2021/01/13 03:06:05;;;;;;;13.47;8.20;;;;;;;1.83;100.00;100174.59;5140621;27;20398;-34
2021/01/13 03:09:04;;;;;;;21.10;8.83;;;;;;;1.92;100.00;100169.75;5141150;27;20202;-34
2021/01/13 03:11:50;;;;;;;24.77;9.47;;;;;;;1.91;100.00;100162.91;5140782;27;20194;-35
2021/01/13 03:14:44;;;;;;;16.90;9.07;;;;;;;1.96;100.00;100174.09;5140735;27;20190;-31
2021/01/13 03:18:08;;;;;;;18.00;9.27;;;;;;;1.84;100.00;100175.47;5140291;27;20194;-37
2021/01/13 03:21:04;;;;;;;22.53;9.70;;;;;;;1.63;100.00;100180.88;5139671;27;20201;-34
2021/01/13 03:24:01;;;;;;;13.23;8.47;;;;;;;2.03;100.00;100178.50;5140826;27;20484;-33
2021/01/13 03:26:49;;;;;;;18.07;9.30;;;;;;;1.79;100.00;100177.94;5140149;27;20248;-34
2021/01/13 03:29:37;;;;;;;21.10;10.17;;;;;;;1.80;100.00;100178.78;5140532;27;20453;-35
2021/01/13 03:32:32;;;;;;;20.80;10.70;;;;;;;1.75;100.00;100177.81;5140570;27;20197;-31
2021/01/13 03:35:23;;;;;;;27.63;11.43;;;;;;;1.80;100.00;100166.88;5140646;27;20194;-34
2021/01/13 03:38:14;;;;;;;18.80;10.10;;;;;;;1.80;100.00;100156.66;5140312;27;20335;-33
2021/01/13 03:41:04;;;;;;;21.63;10.27;;;;;;;1.97;100.00;100167.31;5140346;27;20198;-31
2021/01/13 03:43:53;;;;;;;22.53;10.63;;;;;;;1.93;100.00;100166.38;5139751;27;20283;-31
2021/01/13 03:46:41;;;;;;;17.23;9.83;;;;;;;1.74;100.00;100161.63;5140041;27;20297;-33
2021/01/13 03:49:35;;;;;;;19.27;11.33;;;;;;;1.81;100.00;100160.09;5139829;27;20369;-33
2021/01/13 03:52:27;;;;;;;24.33;11.90;;;;;;;1.70;100.00;100163.25;5140183;27;20326;-32
2021/01/13 03:55:16;;;;;;;18.57;10.90;;;;;;;1.87;100.00;100158.56;5139926;27;20194;-31
2021/01/13 03:58:44;;;;;;;26.00;11.20;;;;;;;1.95;100.00;100161.31;5139711;27;20233;-34
2021/01/13 04:01:52;;;;;;;14.40;8.97;;;;;;;1.90;100.00;100168.84;5139758;27;20315;-33
2021/01/13 04:04:58;;;;;;;18.63;10.17;;;;;;;1.99;100.00;100168.22;5139742;27;20205;-34
2021/01/13 04:07:49;;;;;;;20.90;11.13;;;;;;;1.89;100.00;100161.16;5139336;27;20247;-33
2021/01/13 04:10:36;;;;;;;24.00;11.37;;;;;;;1.85;100.00;100167.00;5139952;27;20201;-31
2021/01/13 04:13:38;;;;;;;18.23;10.73;;;;;;;1.96;100.00;100160.47;5139949;27;20475;-32
2021/01/13 04:16:25;;;;;;;14.67;9.63;;;;;;;2.01;100.00;100157.19;5139605;27;20193;-37
2021/01/13 04:19:12;;;;;;;18.80;9.93;;;;;;;1.95;100.00;100153.66;5139838;27;20194;-33
2021/01/13 04:22:03;;;;;;;18.83;9.37;;;;;;;2.08;100.00;100151.41;5139469;27;20359;-30
2021/01/13 04:24:51;;;;;;;18.80;9.30;;;;;;;2.09;100.00;100142.06;5139091;27;20449;-31
2021/01/13 04:27:39;;;;;;;15.00;8.57;;;;;;;1.97;100.00;100152.00;5139428;27;20252;-37
2021/01/13 04:30:26;;;;;;;16.10;7.87;;;;;;;2.12;100.00;100141.28;5139431;27;20302;-33
2021/01/13 04:33:13;;;;;;;17.20;8.33;;;;;;;2.10;100.00;100131.06;5138788;27;20251;-31
2021/01/13 04:36:00;;;;;;;22.80;7.80;;;;;;;2.22;100.00;100140.66;5139500;27;20475;-37
2021/01/13 04:38:47;;;;;;;17.93;7.83;;;;;;;2.26;100.00;100140.78;5138999;27;20206;-31
2021/01/13 04:41:47;;;;;;;18.03;7.43;;;;;;;2.27;100.00;100131.44;5139020;27;20323;-34
2021/01/13 04:44:35;;;;;;;13.30;8.00;;;;;;;2.21;100.00;100132.13;5138858;27;20193;-32
2021/01/13 04:47:38;;;;;;;19.33;8.10;;;;;;;2.20;100.00;100130.41;5138518;27;20290;-35
2021/01/13 04:50:29;;;;;;;15.40;7.80;;;;;;;1.98;100.00;100118.03;5138457;27;20259;-36
2021/01/13 04:53:18;;;;;;;14.13;8.03;;;;;;;2.08;100.00;100127.59;5138837;27;20201;-33
2021/01/13 04:56:09;;;;;;;13.23;8.83;;;;;;;2.10;100.00;100132.75;5138529;27;20347;-32
2021/01/13 04:59:39;;;;;;;22.30;9.20;;;;;;;2.19;100.00;100128.72;5137394;27;20226;-31
2021/01/13 05:02:44;;;;;;;17.73;9.50;;;;;;;2.22;100.00;100116.00;5125809;27;20221;-35
2021/01/13 05:05:32;;;;;;;18.67;9.93;;;;;;;2.00;100.00;100113.78;5138718;27;20198;-31
2021/01/13 05:08:27;;;;;;;22.60;10.60;;;;;;;1.93;100.00;100107.72;5138810;27;20590;-31
2021/01/13 05:11:13;;;;;;;21.93;9.70;;;;;;;2.15;100.00;100114.16;5138192;27;20198;-34
2021/01/13 05:14:02;;;;;;;20.67;9.57;;;;;;;2.03;100.00;100116.41;5138540;27;20198;-32
2021/01/13 05:17:04;;;;;;;18.93;9.63;;;;;;;2.03;100.00;100112.19;5138300;27;20338;-32
2021/01/13 05:20:22;;;;;;;21.93;9.67;;;;;;;2.26;100.00;100119.50;5138565;27;20290;-31
2021/01/13 05:23:10;;;;;;;16.83;9.03;;;;;;;2.10;100.00;100117.44;5138244;27;20241;-34
2021/01/13 05:25:57;;;;;;;14.07;8.70;;;;;;;2.17;100.00;100111.66;5138108;27;20198;-35
2021/01/13 05:29:16;;;;;;;16.53;9.40;;;;;;;2.28;100.00;100111.03;5138485;27;20194;-32
2021/01/13 05:32:06;;;;;;;18.90;8.77;;;;;;;2.13;100.00;100102.19;5137873;27;20497;-32
2021/01/13 05:34:57;;;;;;;13.33;8.70;;;;;;;2.33;100.00;100101.81;5138085;27;20189;-32
2021/01/13 05:37:48;;;;;;;22.33;9.50;;;;;;;2.19;100.00;100103.22;5138244;27;20194;-32
2021/01/13 05:40:49;;;;;;;19.87;8.13;;;;;;;2.32;100.00;100094.97;5138163;28;20197;-34
2021/01/13 05:43:41;;;;;;;13.57;9.03;;;;;;;2.29;100.00;100105.13;5137375;27;20240;-31
2021/01/13 05:46:44;;;;;;;12.77;8.80;;;;;;;2.23;100.00;100099.88;5138369;28;20473;-31
2021/01/13 05:49:32;;;;;;;17.93;8.80;;;;;;;2.18;100.00;100105.72;5137972;28;20189;-33
2021/01/13 05:52:20;;;;;;;21.23;9.67;;;;;;;2.23;100.00;100104.09;5137925;28;20299;-31
2021/01/13 05:55:08;;;;;;;13.77;9.07;;;;;;;2.14;100.00;100109.03;5138010;28;20533;-36
2021/01/13 05:57:56;;;;;;;12.77;8.70;;;;;;;2.25;100.00;100102.47;5137575;28;20237;-31
2021/01/13 06:00:42;;;;;;;20.23;9.50;;;;;;;2.18;100.00;100118.47;5137779;28;20239;-32
2021/01/13 06:03:30;;;;;;;14.80;8.73;;;;;;;2.12;100.00;100111.53;5137515;28;21293;-34
2021/01/13 06:06:20;;;;;;;16.47;10.33;;;;;;;2.05;100.00;100115.63;5137826;28;20201;-34
2021/01/13 06:09:07;;;;;;;15.70;8.27;;;;;;;2.17;100.00;100104.84;5137885;28;20198;-37
2021/01/13 06:12:05;;;;;;;17.13;9.40;;;;;;;2.45;100.00;100120.75;5137132;28;20335;-33
2021/01/13 06:14:52;;;;;;;18.87;9.53;;;;;;;2.42;100.00;100112.19;5136869;28;20530;-33
2021/01/13 06:17:49;;;;;;;17.20;10.47;;;;;;;2.13;100.00;100105.63;5137596;28;20484;-35
2021/01/13 06:20:40;;;;;;;16.37;11.20;;;;;;;2.26;100.00;100101.63;5137377;28;20228;-34
2021/01/13 06:23:29;;;;;;;27.77;12.77;;;;;;;2.24;100.00;100106.69;5137359;28;20241;-34
2021/01/13 06:26:20;;;;;;;20.70;12.70;;;;;;;2.38;100.00;100101.91;5137268;28;20190;-32
2021/01/13 06:29:39;;;;;;;18.83;13.10;;;;;;;2.41;100.00;100112.16;5137318;28;20210;-37
2021/01/13 06:32:32;;;;;;;25.30;12.50;;;;;;;2.32;100.00;100115.41;5137193;28;20198;-33
2021/01/13 06:35:49;;;;;;;18.73;13.00;;;;;;;2.25;100.00;100122.88;5137452;28;20186;-32
2021/01/13 06:38:44;;;;;;;17.57;12.90;;;;;;;2.28;100.00;100111.03;5137678;28;20194;-36
2021/01/13 06:41:44;;;;;;;25.40;12.97;;;;;;;2.30;100.00;100114.50;5136637;28;20201;-35
2021/01/13 06:44:43;;;;;;;25.43;12.47;;;;;;;2.29;100.00;100117.00;5137098;28;20484;-34
2021/01/13 06:47:29;;;;;;;28.43;13.77;;;;;;;2.31;100.00;100105.16;5137171;28;20268;-31
2021/01/13 06:50:33;;;;;;;20.33;14.37;;;;;;;2.56;100.00;100114.19;5136251;28;20483;-34
2021/01/13 06:53:22;;;;;;;26.80;14.53;;;;;;;2.38;100.00;100118.09;5137115;28;20587;-38
2021/01/13 06:56:11;;;;;;;22.03;13.70;;;;;;;2.58;100.00;100115.09;5140267;27;20198;-34
2021/01/13 06:59:00;;;;;;;31.50;15.50;;;;;;;2.42;100.00;100124.09;5141050;27;20241;-31
2021/01/13 07:01:54;;;;;;;22.50;13.73;;;;;;;2.52;100.00;100120.06;5140374;27;20224;-32
2021/01/13 07:04:46;;;;;;;18.33;12.57;;;;;;;2.48;100.00;100123.38;5140844;27;20298;-34
2021/01/13 07:07:33;;;;;;;20.03;12.80;;;;;;;2.49;100.00;100125.09;5140467;27;20247;-35
2021/01/13 07:10:23;;;;;;;16.67;11.73;;;;;;;2.47;100.00;100116.53;5140312;27;20319;-35
2021/01/13 07:13:13;;;;;;;23.57;12.37;;;;;;;2.58;100.00;100117.66;5140629;27;20300;-33
2021/01/13 07:16:00;;;;;;;17.33;11.93;;;;;;;2.52;100.00;100117.50;5140635;27;20722;-35
2021/01/13 07:18:47;;;;;;;15.73;11.70;;;;;;;2.42;100.00;100114.75;5140480;27;20304;-34
2021/01/13 07:21:37;;;;;;;19.40;11.70;;;;;;;2.56;100.00;100117.63;5140003;27;20312;-35
2021/01/13 07:24:23;;;;;;;18.17;11.60;;;;;;;2.60;100.00;100128.75;5140186;27;20226;-36
2021/01/13 07:27:11;;;;;;;24.03;11.27;;;;;;;2.76;100.00;100124.00;5139886;27;20198;-33
2021/01/13 07:30:00;;;;;;;16.80;11.43;;;;;;;2.85;100.00;100127.53;5139954;27;20202;-33
2021/01/13 07:32:58;;;;;;;25.00;11.43;;;;;;;2.80;100.00;100118.94;5140574;27;20206;-36
2021/01/13 07:35:46;;;;;;;20.23;11.17;;;;;;;2.99;100.00;100127.00;5140198;27;20587;-35
2021/01/13 07:38:34;;;;;;;19.07;10.67;;;;;;;2.95;100.00;100122.66;5139910;27;20648;-35
2021/01/13 07:41:50;;;;;;;20.07;10.77;;;;;;;3.04;100.00;100122.81;5139930;27;20194;-34
2021/01/13 07:44:39;;;;;;;15.03;10.57;;;;;;;2.83;100.00;100114.75;5139883;27;20343;-39
2021/01/13 07:47:32;;;;;;;13.13;10.40;;;;;;;2.85;100.00;100117.31;5139935;27;20293;-38
2021/01/13 07:50:24;;;;;;;19.40;9.97;;;;;;;2.98;100.00;100111.66;5139642;27;20190;-35
2021/01/13 07:53:12;;;;;;;23.10;11.07;;;;;;;2.95;100.00;100106.47;5139624;27;20193;-37
2021/01/13 07:56:01;;;;;;;18.67;10.13;;;;;;;2.91;100.00;100120.88;5139094;27;20339;-38
2021/01/13 07:59:25;;;;;;;14.50;9.93;;;;;;;2.98;100.00;100119.31;5139246;27;20619;-37
2021/01/13 08:02:56;;;;;;;18.33;10.57;;;;;;;2.89;100.00;100121.66;5128556;27;20226;-38
2021/01/13 08:06:26;;;;;;;22.17;10.30;;;;;;;3.06;100.00;100121.16;5118177;28;20298;-37
2021/01/13 08:09:15;;;;;;;13.97;9.40;;;;;;;3.02;100.00;100127.03;5118202;28;20193;-36
2021/01/13 08:12:32;;;;;;;14.93;9.10;;;;;;;2.98;100.00;100126.97;5118435;28;20195;-38
2021/01/13 08:15:46;;;;;;;25.27;10.20;;;;;;;2.75;100.00;100136.72;5118673;28;20279;-37
2021/01/13 08:19:15;;;;;;;16.27;10.23;;;;;;;3.27;100.00;100118.16;5117950;28;20299;-40
2021/01/13 08:22:05;;;;;;;23.40;8.53;;;;;;;3.56;100.00;100126.34;5117781;28;20230;-37
2021/01/13 08:24:59;;;;;;;16.97;9.53;;;;;;;3.55;100.00;100132.28;5101073;28;20211;-40
2021/01/13 08:27:56;;;;;;;22.47;10.50;;;;;;;3.50;100.00;100128.78;5117859;28;20199;-34
2021/01/13 08:30:43;;;;;;;11.77;8.07;;;;;;;3.39;100.00;100130.31;5117875;28;20356;-38
2021/01/13 08:33:34;;;;;;;24.03;8.87;;;;;;;3.71;100.00;100130.84;5118117;28;20206;-39
2021/01/13 08:36:22;;;;;;;17.67;8.50;;;;;;;3.62;100.00;100128.97;5117913;28;20207;-36
2021/01/13 08:39:13;;;;;;;18.90;7.87;;;;;;;3.62;100.00;100133.22;5117849;28;20194;-37
2021/01/13 08:42:24;;;;;;;16.13;7.73;;;;;;;3.96;100.00;100127.00;5117001;28;20314;-38
2021/01/13 08:45:36;;;;;;;14.17;6.80;;;;;;;3.74;100.00;100128.34;5117879;28;20348;-34
2021/01/13 08:48:24;;;;;;;14.10;6.93;;;;;;;3.91;100.00;100118.38;5117612;28;20595;-36
2021/01/13 08:51:14;;;;;;;19.73;8.10;;;;;;;3.90;100.00;100119.22;5117153;28;20194;-38
2021/01/13 08:54:20;;;;;;;16.07;8.03;;;;;;;4.03;100.00;100118.56;5117462;28;20195;-34
2021/01/13 08:57:11;;;;;;;17.30;7.83;;;;;;;3.62;100.00;100123.00;5116889;28;20276;-38
2021/01/13 09:00:10;;;;;;;17.90;8.87;;;;;;;3.87;100.00;100124.28;5096001;28;20195;-35
2021/01/13 09:03:10;;;;;;;14.50;7.40;;;;;;;3.70;100.00;100118.88;5096978;28;20432;-40
2021/01/13 09:05:57;;;;;;;34.60;9.97;;;;;;;3.66;100.00;100112.84;5096852;28;20341;-39
2021/01/13 09:08:47;;;;;;;21.77;8.57;;;;;;;3.70;100.00;100118.88;5096545;28;20265;-39
2021/01/13 09:11:37;;;;;;;16.87;7.40;;;;;;;4.00;100.00;100119.38;5097145;28;20198;-34
2021/01/13 09:14:27;;;;;;;22.00;7.23;;;;;;;3.97;100.00;100115.91;5096623;28;20483;-35
2021/01/13 09:17:15;;;;;;;22.97;7.67;;;;;;;4.18;100.00;100113.69;5097491;28;20202;-38
2021/01/13 09:20:04;;;;;;;22.07;6.93;;;;;;;4.01;100.00;100115.09;5096374;28;20203;-37
2021/01/13 09:22:56;;;;;;;14.07;5.87;;;;;;;3.94;100.00;100100.53;5098208;28;20224;-37
2021/01/13 09:25:45;;;;;;;14.30;6.13;;;;;;;4.09;100.00;100105.84;5097255;28;20203;-36
2021/01/13 09:28:35;;;;;;;13.43;6.37;;;;;;;4.14;100.00;100106.78;5109944;28;20284;-37
2021/01/13 09:31:22;;;;;;;14.73;5.57;;;;;;;4.07;100.00;100108.38;5104849;28;20198;-40
2021/01/13 09:34:30;;;;;;;12.63;5.93;;;;;;;4.39;100.00;100098.63;5114393;28;20199;-39
2021/01/13 09:37:21;;;;;;;14.40;6.17;;;;;;;4.37;100.00;100096.88;5097283;28;20191;-39
2021/01/13 09:40:11;;;;;;;18.60;5.30;;;;;;;4.54;100.00;100094.53;5097929;28;20299;-40
2021/01/13 09:43:02;;;;;;;15.57;5.30;;;;;;;4.50;100.00;100106.44;5111839;28;20224;-37
2021/01/13 09:45:49;;;;;;;12.00;4.77;;;;;;;4.32;100.00;100095.94;5097566;28;20205;-38
2021/01/13 09:48:37;;;;;;;12.07;5.43;;;;;;;4.15;100.00;100104.25;5096867;28;20471;-41
2021/01/13 09:51:24;;;;;;;10.53;5.37;;;;;;;4.49;100.00;100097.03;5098136;28;20212;-39
2021/01/13 09:54:13;;;;;;;12.27;6.33;;;;;;;4.50;100.00;100107.28;5097952;28;20486;-41
2021/01/13 09:57:01;;;;;;;16.90;5.87;;;;;;;4.59;100.00;100101.44;5097332;28;20348;-42
2021/01/13 10:00:00;;;;;;;13.27;5.30;;;;;;;3.89;100.00;100099.56;5102216;28;20638;-36
2021/01/13 10:02:52;;;;;;;25.40;5.50;;;;;;;3.81;100.00;100102.00;5096266;28;20680;-41
2021/01/13 10:05:39;;;;;;;14.23;5.23;;;;;;;3.88;100.00;100108.09;5112662;28;20203;-40
2021/01/13 10:08:30;;;;;;;13.07;5.37;;;;;;;4.12;100.00;100114.44;5115772;28;20203;-42
2021/01/13 10:11:19;;;;;;;10.77;5.67;;;;;;;4.05;100.00;100124.56;5116242;28;20216;-39
2021/01/13 10:14:10;;;;;;;13.53;5.37;;;;;;;3.87;100.00;100117.47;5115478;28;20612;-41
2021/01/13 10:17:00;;;;;;;14.27;5.70;;;;;;;3.95;100.00;100117.59;5116397;28;20201;-41
2021/01/13 10:19:51;;;;;;;9.43;6.70;;;;;;;4.05;100.00;100114.31;5117538;28;20196;-39
2021/01/13 10:22:39;;;;;;;13.67;5.57;;;;;;;3.89;100.00;100114.94;5116776;28;20225;-42
2021/01/13 10:25:33;;;;;;;15.43;5.30;;;;;;;3.91;100.00;100103.88;5116040;28;20288;-41
2021/01/13 10:28:22;;;;;;;16.80;6.10;;;;;;;3.91;100.00;100101.31;5116506;28;20212;-42
2021/01/13 10:31:10;;;;;;;14.67;6.30;;;;;;;4.03;100.00;100104.06;5120452;28;20202;-42
2021/01/13 10:33:57;;;;;;;18.50;6.17;;;;;;;4.08;100.00;100110.13;5120262;28;20219;-41
2021/01/13 10:36:49;;;;;;;20.90;5.90;;;;;;;4.09;100.00;100103.28;5120244;28;20197;-42
2021/01/13 10:39:37;;;;;;;31.70;7.90;;;;;;;4.04;100.00;100100.66;5120534;28;20280;-42
2021/01/13 10:42:26;;;;;;;14.27;5.70;;;;;;;4.07;100.00;100098.16;5119539;28;20228;-40
2021/01/13 10:45:14;;;;;;;11.40;6.00;;;;;;;4.22;100.00;100088.97;5120036;28;20200;-41
2021/01/13 10:48:02;;;;;;;20.00;7.07;;;;;;;4.15;100.00;100095.72;5120064;28;20633;-41
2021/01/13 10:50:51;;;;;;;15.77;6.17;;;;;;;4.03;100.00;100096.38;5119784;28;20602;-42
2021/01/13 10:53:52;;;;;;;16.03;7.03;;;;;;;4.12;100.00;100090.53;5120144;28;20194;-42
2021/01/13 10:56:44;;;;;;;19.80;6.17;;;;;;;4.35;100.00;100091.72;5120434;28;20489;-40
2021/01/13 10:59:31;;;;;;;16.47;6.63;;;;;;;4.40;100.00;100084.94;5138820;27;20527;-40
2021/01/13 11:02:19;;;;;;;21.17;6.63;;;;;;;4.37;100.00;100073.84;5140670;27;20664;-42
2021/01/13 11:05:07;;;;;;;11.73;5.90;;;;;;;4.52;100.00;100079.16;5140070;27;20255;-41
2021/01/13 11:07:54;;;;;;;12.73;5.77;;;;;;;4.64;100.00;100073.28;5139718;27;20224;-41
2021/01/13 11:10:44;;;;;;;14.07;5.80;;;;;;;4.49;100.00;100073.97;5140402;27;20470;-40
2021/01/13 11:13:32;;;;;;;14.50;5.83;;;;;;;4.32;100.00;100066.09;5140167;27;20190;-41
2021/01/13 11:16:18;;;;;;;12.20;6.03;;;;;;;4.30;100.00;100062.63;5138894;27;20196;-42
2021/01/13 11:19:06;;;;;;;15.30;6.57;;;;;;;4.27;100.00;100061.72;5140368;27;20294;-42
2021/01/13 11:21:58;;;;;;;11.67;6.13;;;;;;;4.48;100.00;100056.88;5140034;27;20272;-41
2021/01/13 11:24:50;;;;;;;21.50;6.40;;;;;;;4.36;100.00;100060.16;5139332;27;20190;-41
2021/01/13 11:27:38;;;;;;;10.43;5.53;;;;;;;4.54;100.00;100061.22;5140064;27;20580;-41
2021/01/13 11:30:29;;;;;;;15.97;5.97;;;;;;;4.28;100.00;100053.22;5139692;27;20194;-41
2021/01/13 11:33:23;;;;;;;17.37;6.53;;;;;;;4.48;100.00;100055.19;5139241;27;20597;-41
2021/01/13 11:36:23;;;;;;;15.20;5.67;;;;;;;4.47;100.00;100056.03;5139558;27;20201;-40
2021/01/13 11:39:18;;;;;;;12.37;5.23;;;;;;;4.40;100.00;100051.66;5139456;27;20474;-42
2021/01/13 11:42:37;;;;;;;13.33;6.40;;;;;;;4.34;100.00;100043.91;5137814;27;20600;-41
2021/01/13 11:45:30;;;;;;;15.33;5.73;;;;;;;4.62;100.00;100034.84;5140147;27;20202;-42
2021/01/13 11:48:25;;;;;;;9.40;5.20;;;;;;;4.69;100.00;100025.53;5139430;27;20205;-41
2021/01/13 11:51:21;;;;;;;25.30;5.90;;;;;;;4.73;100.00;100019.63;5139612;27;20205;-41
2021/01/13 11:54:09;;;;;;;16.87;5.87;;;;;;;4.83;100.00;100018.84;5139647;27;20715;-41
2021/01/13 11:57:17;;;;;;;13.50;4.80;;;;;;;4.88;100.00;100006.97;5139519;27;20206;-41
2021/01/13 12:00:16;;;;;;;12.20;5.63;;;;;;;4.96;100.00;100017.28;5139598;27;20247;-42
2021/01/13 12:03:05;;;;;;;14.50;5.63;;;;;;;5.02;100.00;100005.38;5119227;28;20283;-41
2021/01/13 12:05:51;;;;;;;10.00;5.03;;;;;;;5.28;100.00;100009.88;5126998;27;20201;-41
2021/01/13 12:08:37;;;;;;;8.20;4.67;;;;;;;5.48;100.00;100001.50;5139570;27;20235;-41
2021/01/13 12:11:39;;;;;;;10.77;5.03;;;;;;;5.77;100.00;99993.16;5139416;27;20198;-40
2021/01/13 12:14:25;;;;;;;18.30;5.80;;;;;;;5.51;100.00;99990.41;5139269;27;20599;-41
2021/01/13 12:17:20;;;;;;;8.73;5.10;;;;;;;5.63;100.00;99987.91;5138085;27;20335;-41
2021/01/13 12:20:09;;;;;;;11.47;6.83;;;;;;;5.93;100.00;99974.47;5133416;27;20217;-40
2021/01/13 12:23:02;;;;;;;9.30;4.53;;;;;;;5.45;100.00;99972.41;5136245;27;20515;-42
2021/01/13 12:25:53;;;;;;;9.37;4.70;;;;;;;5.59;100.00;99965.69;5139328;27;20206;-41
2021/01/13 12:28:46;;;;;;;13.37;4.83;;;;;;;5.16;100.00;99961.94;5138646;27;20610;-41
2021/01/13 12:31:35;;;;;;;13.47;4.90;;;;;;;5.18;100.00;99952.56;5138870;27;20209;-41
2021/01/13 12:34:24;;;;;;;11.03;5.07;;;;;;;4.89;100.00;99954.88;5139164;27;20213;-41
2021/01/13 12:37:20;;;;;;;12.63;5.10;;;;;;;5.35;100.00;99960.38;5137617;27;20239;-43
2021/01/13 12:40:14;;;;;;;9.90;5.17;;;;;;;5.27;100.00;99951.75;5139058;27;20291;-40
2021/01/13 12:43:15;;;;;;;14.93;4.90;;;;;;;4.94;100.00;99950.66;5132057;27;20230;-42
2021/01/13 12:46:05;;;;;;;9.90;4.63;;;;;;;4.91;100.00;99942.94;5138060;27;20216;-41
2021/01/13 12:48:54;;;;;;;14.50;5.07;;;;;;;5.00;100.00;99935.28;5139143;27;20210;-42
2021/01/13 12:51:42;;;;;;;11.10;5.10;;;;;;;5.01;100.00;99936.16;5138057;27;20355;-42
2021/01/13 12:54:30;;;;;;;13.40;5.73;;;;;;;4.87;100.00;99933.50;5138628;27;20289;-42
2021/01/13 12:57:17;;;;;;;15.00;6.27;;;;;;;4.95;100.00;99925.88;5138544;27;20230;-42
2021/01/13 13:00:07;;;;;;;15.60;5.47;;;;;;;4.86;100.00;99921.50;5076374;28;20282;-42
2021/01/13 13:02:56;;;;;;;15.80;5.57;;;;;;;4.82;100.00;99927.47;5077130;28;20219;-42
2021/01/13 13:05:43;;;;;;;15.27;6.47;;;;;;;5.15;100.00;99932.03;5077262;28;20255;-41
2021/01/13 13:08:30;;;;;;;15.63;6.93;;;;;;;4.74;100.00;99919.72;5092531;28;20196;-41
2021/01/13 13:11:25;;;;;;;15.00;6.77;;;;;;;4.99;100.00;99913.09;5097446;28;20588;-42
2021/01/13 13:14:13;;;;;;;17.63;6.83;;;;;;;4.98;100.00;99920.78;5096864;28;20219;-42